Crotto, Argentina
Current Conditions -  °F | °C
As of 11:00 AM on Sunday 23 Nov 2014 (Local Time) from SAEZ Reporting Station
Clear Clear  
Wind Chill: 25°   Ceiling: Unl
Heat Index: 26°   Visibility: 6mi
Dew Point: 13°   Wind: 10mph
Humidity: 47%   Direction: 320°NW
Pressure: 29.88"   Gusts: NA
Location:  36.58°S, 60.18°W
Report Text: SAEZ 231400Z 32009KT 280V010 CAVOK 25/13 Q1012
Loading
Personal Weather Stations






























Interactive Weather Map New forecast layout! Learn more

10-Day Weather Forecast

Advertisements
Track Severe Weather on mobile